sensor_id;sensor_type;location;lat;lon;timestamp;pressure;altitude;pressure_sealevel;temperature;humidity
55687;BME280;41911;52.362;4.978;2023-03-12T00:01:27;101120.87;;;2.89;40.75
55687;BME280;41911;52.362;4.978;2023-03-12T00:01:58;101120.90;;;2.97;40.83
55687;BME280;41911;52.362;4.978;2023-03-12T00:02:29;101119.49;;;3.07;40.59
55687;BME280;41911;52.362;4.978;2023-03-12T00:03:00;101120.09;;;3.01;40.59
55687;BME280;41911;52.362;4.978;2023-03-12T00:03:31;101119.91;;;3.02;40.84
55687;BME280;41911;52.362;4.978;2023-03-12T00:04:02;101121.61;;;3.01;40.67
55687;BME280;41911;52.362;4.978;2023-03-12T00:04:34;101119.51;;;3.02;40.57
55687;BME280;41911;52.362;4.978;2023-03-12T00:05:05;101118.91;;;2.97;40.41
55687;BME280;41911;52.362;4.978;2023-03-12T00:05:38;101120.74;;;2.95;40.54
55687;BME280;41911;52.362;4.978;2023-03-12T00:06:09;101121.67;;;3.01;41.01
55687;BME280;41911;52.362;4.978;2023-03-12T00:06:40;101122.36;;;3.24;40.48
55687;BME280;41911;52.362;4.978;2023-03-12T00:07:11;101121.93;;;2.89;40.42
55687;BME280;41911;52.362;4.978;2023-03-12T00:07:43;101124.38;;;2.87;40.49
55687;BME280;41911;52.362;4.978;2023-03-12T00:08:14;101122.27;;;2.96;40.37
55687;BME280;41911;52.362;4.978;2023-03-12T00:08:45;101123.12;;;2.92;40.34
55687;BME280;41911;52.362;4.978;2023-03-12T00:09:16;101123.19;;;2.94;40.06
55687;BME280;41911;52.362;4.978;2023-03-12T00:09:47;101125.55;;;2.85;40.29
55687;BME280;41911;52.362;4.978;2023-03-12T00:10:19;101125.19;;;3.51;40.47
55687;BME280;41911;52.362;4.978;2023-03-12T00:10:50;101125.90;;;3.13;40.45
55687;BME280;41911;52.362;4.978;2023-03-12T00:11:22;101124.52;;;2.85;39.99
55687;BME280;41911;52.362;4.978;2023-03-12T00:11:53;101125.69;;;2.85;40.48
55687;BME280;41911;52.362;4.978;2023-03-12T00:12:24;101125.71;;;3.02;40.46
55687;BME280;41911;52.362;4.978;2023-03-12T00:12:56;101125.55;;;3.51;40.31
55687;BME280;41911;52.362;4.978;2023-03-12T00:13:27;101124.21;;;2.99;40.27
55687;BME280;41911;52.362;4.978;2023-03-12T00:13:58;101124.52;;;2.88;40.02
55687;BME280;41911;52.362;4.978;2023-03-12T00:14:29;101126.56;;;2.85;40.11
55687;BME280;41911;52.362;4.978;2023-03-12T00:15:01;101128.40;;;3.39;40.19
55687;BME280;41911;52.362;4.978;2023-03-12T00:15:35;101128.45;;;2.86;39.98
55687;BME280;41911;52.362;4.978;2023-03-12T00:16:07;101127.93;;;3.17;39.71
55687;BME280;41911;52.362;4.978;2023-03-12T00:16:39;101126.79;;;2.89;40.07
55687;BME280;41911;52.362;4.978;2023-03-12T00:17:10;101127.02;;;2.88;39.90
55687;BME280;41911;52.362;4.978;2023-03-12T00:17:41;101127.71;;;2.97;39.81
55687;BME280;41911;52.362;4.978;2023-03-12T00:18:12;101124.99;;;3.18;39.43
55687;BME280;41911;52.362;4.978;2023-03-12T00:18:45;101124.53;;;2.88;39.68
55687;BME280;41911;52.362;4.978;2023-03-12T00:19:18;101122.68;;;3.15;40.01
55687;BME280;41911;52.362;4.978;2023-03-12T00:19:50;101121.02;;;3.04;40.08
55687;BME280;41911;52.362;4.978;2023-03-12T00:20:22;101117.63;;;3.01;39.68
55687;BME280;41911;52.362;4.978;2023-03-12T00:20:54;101116.16;;;3.26;39.77
55687;BME280;41911;52.362;4.978;2023-03-12T00:21:26;101114.98;;;3.06;38.71
55687;BME280;41911;52.362;4.978;2023-03-12T00:21:57;101115.63;;;3.14;38.61
55687;BME280;41911;52.362;4.978;2023-03-12T00:22:28;101112.11;;;3.61;39.13
55687;BME280;41911;52.362;4.978;2023-03-12T00:22:59;101112.74;;;3.02;39.30
55687;BME280;41911;52.362;4.978;2023-03-12T00:23:30;101109.04;;;3.34;39.19
55687;BME280;41911;52.362;4.978;2023-03-12T00:24:01;101110.89;;;3.02;39.34
55687;BME280;41911;52.362;4.978;2023-03-12T00:24:32;101109.04;;;3.62;39.43
55687;BME280;41911;52.362;4.978;2023-03-12T00:25:05;101111.13;;;3.05;39.24
55687;BME280;41911;52.362;4.978;2023-03-12T00:25:36;101110.16;;;3.04;39.36
55687;BME280;41911;52.362;4.978;2023-03-12T00:26:09;101108.03;;;3.14;39.36
55687;BME280;41911;52.362;4.978;2023-03-12T00:26:41;101107.14;;;3.38;39.31
55687;BME280;41911;52.362;4.978;2023-03-12T00:27:11;101108.77;;;3.08;39.21
55687;BME280;41911;52.362;4.978;2023-03-12T00:27:43;101108.50;;;3.13;38.61
55687;BME280;41911;52.362;4.978;2023-03-12T00:28:14;101108.35;;;3.45;38.65
55687;BME280;41911;52.362;4.978;2023-03-12T00:28:46;101108.05;;;3.14;38.68
55687;BME280;41911;52.362;4.978;2023-03-12T00:29:17;101105.73;;;3.15;38.34
55687;BME280;41911;52.362;4.978;2023-03-12T00:29:49;101104.94;;;3.13;38.62
55687;BME280;41911;52.362;4.978;2023-03-12T00:30:20;101103.98;;;3.13;38.61
55687;BME280;41911;52.362;4.978;2023-03-12T00:30:51;101104.74;;;3.09;38.32
55687;BME280;41911;52.362;4.978;2023-03-12T00:31:25;101103.22;;;3.08;38.57
55687;BME280;41911;52.362;4.978;2023-03-12T00:31:56;101102.53;;;3.40;38.61
55687;BME280;41911;52.362;4.978;2023-03-12T00:32:27;101101.29;;;3.11;38.64
55687;BME280;41911;52.362;4.978;2023-03-12T00:32:58;101100.76;;;3.10;38.68
55687;BME280;41911;52.362;4.978;2023-03-12T00:33:29;101101.33;;;3.08;38.54
55687;BME280;41911;52.362;4.978;2023-03-12T00:34:01;101099.89;;;3.33;38.89
55687;BME280;41911;52.362;4.978;2023-03-12T00:34:34;101099.32;;;3.05;38.41
55687;BME280;41911;52.362;4.978;2023-03-12T00:35:06;101100.75;;;3.00;39.13
55687;BME280;41911;52.362;4.978;2023-03-12T00:35:38;101100.47;;;3.01;38.63
55687;BME280;41911;52.362;4.978;2023-03-12T00:36:09;101098.72;;;3.01;38.48
55687;BME280;41911;52.362;4.978;2023-03-12T00:36:40;101097.37;;;3.02;38.92
55687;BME280;41911;52.362;4.978;2023-03-12T00:37:11;101096.77;;;2.96;38.93
55687;BME280;41911;52.362;4.978;2023-03-12T00:37:42;101097.85;;;3.23;39.04
55687;BME280;41911;52.362;4.978;2023-03-12T00:38:13;101096.41;;;2.99;38.75
55687;BME280;41911;52.362;4.978;2023-03-12T00:38:44;101096.40;;;3.05;38.70
55687;BME280;41911;52.362;4.978;2023-03-12T00:39:15;101096.91;;;3.07;38.67
55687;BME280;41911;52.362;4.978;2023-03-12T00:39:47;101094.20;;;2.93;39.03
55687;BME280;41911;52.362;4.978;2023-03-12T00:40:20;101095.73;;;2.91;38.81
55687;BME280;41911;52.362;4.978;2023-03-12T00:40:51;101092.17;;;2.95;38.64
55687;BME280;41911;52.362;4.978;2023-03-12T00:41:23;101089.40;;;3.40;38.76
55687;BME280;41911;52.362;4.978;2023-03-12T00:41:54;101089.49;;;2.96;38.81
55687;BME280;41911;52.362;4.978;2023-03-12T00:42:25;101088.60;;;2.88;39.26
55687;BME280;41911;52.362;4.978;2023-03-12T00:42:56;101085.89;;;3.06;38.72
55687;BME280;41911;52.362;4.978;2023-03-12T00:43:27;101084.06;;;2.95;39.02
55687;BME280;41911;52.362;4.978;2023-03-12T00:43:58;101082.04;;;2.89;39.07
55687;BME280;41911;52.362;4.978;2023-03-12T00:44:29;101079.89;;;3.19;39.22
55687;BME280;41911;52.362;4.978;2023-03-12T00:45:00;101076.79;;;3.30;38.81
55687;BME280;41911;52.362;4.978;2023-03-12T00:45:31;101076.49;;;2.94;38.43
55687;BME280;41911;52.362;4.978;2023-03-12T00:46:02;101077.13;;;2.78;39.29
55687;BME280;41911;52.362;4.978;2023-03-12T00:46:34;101074.57;;;2.87;39.03
55687;BME280;41911;52.362;4.978;2023-03-12T00:47:05;101073.56;;;2.82;39.11
55687;BME280;41911;52.362;4.978;2023-03-12T00:47:36;101074.21;;;2.84;38.90
55687;BME280;41911;52.362;4.978;2023-03-12T00:48:08;101072.79;;;3.17;38.73
55687;BME280;41911;52.362;4.978;2023-03-12T00:48:40;101073.73;;;2.87;38.72
55687;BME280;41911;52.362;4.978;2023-03-12T00:49:14;101074.51;;;2.87;38.61
55687;BME280;41911;52.362;4.978;2023-03-12T00:49:45;101073.50;;;2.90;38.51
55687;BME280;41911;52.362;4.978;2023-03-12T00:50:18;101073.75;;;2.91;38.72
55687;BME280;41911;52.362;4.978;2023-03-12T00:50:49;101074.12;;;3.22;38.92
55687;BME280;41911;52.362;4.978;2023-03-12T00:51:20;101072.81;;;3.02;39.01
55687;BME280;41911;52.362;4.978;2023-03-12T00:51:52;101071.54;;;3.26;39.04
55687;BME280;41911;52.362;4.978;2023-03-12T00:52:23;101069.96;;;3.53;38.87
55687;BME280;41911;52.362;4.978;2023-03-12T00:52:54;101070.30;;;2.92;38.93
55687;BME280;41911;52.362;4.978;2023-03-12T00:53:25;101070.98;;;2.93;38.59
55687;BME280;41911;52.362;4.978;2023-03-12T00:53:56;101067.46;;;2.94;38.24
55687;BME280;41911;52.362;4.978;2023-03-12T00:54:27;101068.90;;;2.93;38.69
55687;BME280;41911;52.362;4.978;2023-03-12T00:54:58;101069.14;;;3.22;38.46
55687;BME280;41911;52.362;4.978;2023-03-12T00:55:29;101068.78;;;2.90;38.84
55687;BME280;41911;52.362;4.978;2023-03-12T00:56:00;101067.87;;;2.92;38.71
55687;BME280;41911;52.362;4.978;2023-03-12T00:56:31;101064.96;;;2.89;38.83
55687;BME280;41911;52.362;4.978;2023-03-12T00:57:03;101066.54;;;2.93;39.01
55687;BME280;41911;52.362;4.978;2023-03-12T00:57:34;101065.74;;;3.18;38.53
55687;BME280;41911;52.362;4.978;2023-03-12T00:58:05;101065.62;;;2.90;38.68
55687;BME280;41911;52.362;4.978;2023-03-12T00:58:36;101067.57;;;3.48;38.31
55687;BME280;41911;52.362;4.978;2023-03-12T00:59:07;101067.89;;;3.28;38.36
55687;BME280;41911;52.362;4.978;2023-03-12T00:59:38;101068.94;;;3.14;38.17
55687;BME280;41911;52.362;4.978;2023-03-12T01:00:11;101070.50;;;2.65;38.10
55687;BME280;41911;52.362;4.978;2023-03-12T01:00:42;101070.75;;;2.96;38.10
55687;BME280;41911;52.362;4.978;2023-03-12T01:01:13;101073.52;;;3.33;38.30
55687;BME280;41911;52.362;4.978;2023-03-12T01:01:44;101073.65;;;3.06;38.87
55687;BME280;41911;52.362;4.978;2023-03-12T01:02:15;101075.17;;;3.02;38.37
55687;BME280;41911;52.362;4.978;2023-03-12T01:02:46;101076.45;;;2.63;38.63
55687;BME280;41911;52.362;4.978;2023-03-12T01:03:18;101075.61;;;2.90;38.59
55687;BME280;41911;52.362;4.978;2023-03-12T01:03:49;101076.05;;;2.96;38.66
55687;BME280;41911;52.362;4.978;2023-03-12T01:04:21;101078.06;;;2.89;38.52
55687;BME280;41911;52.362;4.978;2023-03-12T01:04:52;101077.66;;;3.04;38.38
55687;BME280;41911;52.362;4.978;2023-03-12T01:05:24;101077.29;;;2.90;38.51
55687;BME280;41911;52.362;4.978;2023-03-12T01:05:55;101074.20;;;2.76;38.73
55687;BME280;41911;52.362;4.978;2023-03-12T01:06:26;101073.14;;;2.43;38.90
55687;BME280;41911;52.362;4.978;2023-03-12T01:06:57;101073.73;;;2.50;38.75
55687;BME280;41911;52.362;4.978;2023-03-12T01:07:28;101072.26;;;2.90;38.75
55687;BME280;41911;52.362;4.978;2023-03-12T01:07:59;101072.09;;;3.20;38.82
55687;BME280;41911;52.362;4.978;2023-03-12T01:08:30;101069.36;;;2.73;38.57
55687;BME280;41911;52.362;4.978;2023-03-12T01:09:02;101071.38;;;3.10;38.08
55687;BME280;41911;52.362;4.978;2023-03-12T01:09:34;101069.71;;;3.17;38.02
55687;BME280;41911;52.362;4.978;2023-03-12T01:10:06;101070.74;;;2.94;38.42
55687;BME280;41911;52.362;4.978;2023-03-12T01:10:41;101071.17;;;3.04;38.19
55687;BME280;41911;52.362;4.978;2023-03-12T01:11:12;101072.93;;;2.81;37.99
55687;BME280;41911;52.362;4.978;2023-03-12T01:11:43;101070.93;;;2.88;38.36
55687;BME280;41911;52.362;4.978;2023-03-12T01:12:14;101072.57;;;2.77;38.14
55687;BME280;41911;52.362;4.978;2023-03-12T01:12:46;101072.43;;;2.93;37.96
55687;BME280;41911;52.362;4.978;2023-03-12T01:13:17;101071.29;;;3.04;37.97
55687;BME280;41911;52.362;4.978;2023-03-12T01:13:48;101071.89;;;3.10;38.39
55687;BME280;41911;52.362;4.978;2023-03-12T01:14:19;101072.29;;;3.17;38.44
55687;BME280;41911;52.362;4.978;2023-03-12T01:14:51;101072.10;;;3.37;37.92
55687;BME280;41911;52.362;4.978;2023-03-12T01:15:22;101071.63;;;3.03;38.28
55687;BME280;41911;52.362;4.978;2023-03-12T01:15:53;101070.97;;;3.00;38.09
55687;BME280;41911;52.362;4.978;2023-03-12T01:16:24;101070.01;;;3.47;37.94
55687;BME280;41911;52.362;4.978;2023-03-12T01:16:55;101070.35;;;3.38;37.84
55687;BME280;41911;52.362;4.978;2023-03-12T01:17:26;101070.95;;;3.34;37.84
55687;BME280;41911;52.362;4.978;2023-03-12T01:17:57;101073.23;;;3.44;37.57
55687;BME280;41911;52.362;4.978;2023-03-12T01:18:28;101072.14;;;3.38;38.20
55687;BME280;41911;52.362;4.978;2023-03-12T01:19:01;101071.87;;;3.15;38.48
55687;BME280;41911;52.362;4.978;2023-03-12T01:19:32;101071.91;;;2.67;38.06
55687;BME280;41911;52.362;4.978;2023-03-12T01:20:04;101071.26;;;2.97;37.86
55687;BME280;41911;52.362;4.978;2023-03-12T01:20:35;101073.47;;;2.96;38.35
55687;BME280;41911;52.362;4.978;2023-03-12T01:21:06;101072.27;;;3.29;38.16
55687;BME280;41911;52.362;4.978;2023-03-12T01:21:37;101072.39;;;2.74;38.14
55687;BME280;41911;52.362;4.978;2023-03-12T01:22:10;101073.52;;;3.03;38.33
55687;BME280;41911;52.362;4.978;2023-03-12T01:22:41;101072.93;;;3.36;38.36
55687;BME280;41911;52.362;4.978;2023-03-12T01:23:13;101071.70;;;3.04;38.12
55687;BME280;41911;52.362;4.978;2023-03-12T01:24:14;101072.04;;;3.12;38.09
55687;BME280;41911;52.362;4.978;2023-03-12T01:24:45;101068.13;;;3.27;37.80
55687;BME280;41911;52.362;4.978;2023-03-12T01:25:16;101070.47;;;3.48;37.91
55687;BME280;41911;52.362;4.978;2023-03-12T01:25:47;101072.11;;;3.14;38.25
55687;BME280;41911;52.362;4.978;2023-03-12T01:26:18;101069.03;;;2.92;38.37
55687;BME280;41911;52.362;4.978;2023-03-12T01:26:49;101069.96;;;3.09;38.27
55687;BME280;41911;52.362;4.978;2023-03-12T01:27:20;101070.45;;;2.81;38.40
55687;BME280;41911;52.362;4.978;2023-03-12T01:27:51;101069.11;;;3.17;38.50
55687;BME280;41911;52.362;4.978;2023-03-12T01:28:23;101067.13;;;3.58;38.10
55687;BME280;41911;52.362;4.978;2023-03-12T01:28:54;101066.22;;;3.30;38.09
55687;BME280;41911;52.362;4.978;2023-03-12T01:29:25;101068.26;;;3.55;38.50
55687;BME280;41911;52.362;4.978;2023-03-12T01:29:56;101068.75;;;3.34;38.27
55687;BME280;41911;52.362;4.978;2023-03-12T01:30:28;101066.44;;;3.31;38.29
55687;BME280;41911;52.362;4.978;2023-03-12T01:31:05;101066.63;;;3.40;38.22
55687;BME280;41911;52.362;4.978;2023-03-12T01:31:36;101064.96;;;3.00;38.18
55687;BME280;41911;52.362;4.978;2023-03-12T01:32:07;101062.08;;;2.97;38.42
55687;BME280;41911;52.362;4.978;2023-03-12T01:32:38;101061.60;;;3.28;38.07
55687;BME280;41911;52.362;4.978;2023-03-12T01:33:09;101059.91;;;3.05;38.84
55687;BME280;41911;52.362;4.978;2023-03-12T01:33:40;101060.35;;;2.73;38.59
55687;BME280;41911;52.362;4.978;2023-03-12T01:34:11;101060.92;;;3.05;37.98
55687;BME280;41911;52.362;4.978;2023-03-12T01:34:42;101058.27;;;3.14;37.93
55687;BME280;41911;52.362;4.978;2023-03-12T01:35:13;101059.55;;;3.12;38.01
55687;BME280;41911;52.362;4.978;2023-03-12T01:35:44;101059.68;;;2.86;38.09
55687;BME280;41911;52.362;4.978;2023-03-12T01:36:17;101057.64;;;3.23;38.25
55687;BME280;41911;52.362;4.978;2023-03-12T01:36:48;101058.32;;;3.47;38.36
55687;BME280;41911;52.362;4.978;2023-03-12T01:37:19;101056.98;;;3.02;39.07
55687;BME280;41911;52.362;4.978;2023-03-12T01:37:50;101056.24;;;2.75;38.82
55687;BME280;41911;52.362;4.978;2023-03-12T01:38:22;101056.60;;;3.21;38.57
55687;BME280;41911;52.362;4.978;2023-03-12T01:38:55;101055.47;;;3.19;38.33
55687;BME280;41911;52.362;4.978;2023-03-12T01:39:26;101054.20;;;3.57;38.42
55687;BME280;41911;52.362;4.978;2023-03-12T01:39:57;101055.65;;;3.34;38.23
55687;BME280;41911;52.362;4.978;2023-03-12T01:40:28;101054.93;;;3.16;38.13
55687;BME280;41911;52.362;4.978;2023-03-12T01:41:03;101054.47;;;3.39;38.06
55687;BME280;41911;52.362;4.978;2023-03-12T01:41:34;101053.46;;;3.11;38.09
55687;BME280;41911;52.362;4.978;2023-03-12T01:42:05;101051.13;;;3.08;37.92
55687;BME280;41911;52.362;4.978;2023-03-12T01:42:36;101053.63;;;3.02;38.47
55687;BME280;41911;52.362;4.978;2023-03-12T01:43:23;101051.05;;;3.08;38.27
55687;BME280;41911;52.362;4.978;2023-03-12T01:43:54;101052.19;;;3.14;38.30
55687;BME280;41911;52.362;4.978;2023-03-12T01:44:25;101050.67;;;3.02;38.37
55687;BME280;41911;52.362;4.978;2023-03-12T01:44:58;101048.98;;;3.07;37.64
55687;BME280;41911;52.362;4.978;2023-03-12T01:46:06;101045.75;;;3.13;37.62
55687;BME280;41911;52.362;4.978;2023-03-12T01:46:39;101043.37;;;3.69;37.58
55687;BME280;41911;52.362;4.978;2023-03-12T01:47:10;101043.79;;;3.07;37.74
55687;BME280;41911;52.362;4.978;2023-03-12T01:47:41;101042.17;;;2.94;38.10
55687;BME280;41911;52.362;4.978;2023-03-12T01:48:12;101043.38;;;3.38;37.77
55687;BME280;41911;52.362;4.978;2023-03-12T01:48:46;101045.23;;;3.10;37.90
55687;BME280;41911;52.362;4.978;2023-03-12T01:49:23;101044.53;;;3.17;38.12
55687;BME280;41911;52.362;4.978;2023-03-12T01:49:55;101042.67;;;3.00;38.13
55687;BME280;41911;52.362;4.978;2023-03-12T01:50:26;101045.00;;;3.66;38.07
55687;BME280;41911;52.362;4.978;2023-03-12T01:50:58;101043.71;;;3.00;37.70
55687;BME280;41911;52.362;4.978;2023-03-12T01:51:34;101040.99;;;3.47;37.99
55687;BME280;41911;52.362;4.978;2023-03-12T01:52:09;101039.22;;;3.30;38.20
55687;BME280;41911;52.362;4.978;2023-03-12T01:52:42;101038.30;;;2.89;38.34
55687;BME280;41911;52.362;4.978;2023-03-12T01:53:13;101041.73;;;2.99;37.82
55687;BME280;41911;52.362;4.978;2023-03-12T01:53:47;101040.38;;;3.15;38.09
55687;BME280;41911;52.362;4.978;2023-03-12T01:54:22;101041.21;;;3.06;38.24
55687;BME280;41911;52.362;4.978;2023-03-12T01:54:59;101038.19;;;3.20;38.18
55687;BME280;41911;52.362;4.978;2023-03-12T01:55:31;101040.02;;;2.80;37.92
55687;BME280;41911;52.362;4.978;2023-03-12T01:56:02;101039.63;;;2.99;37.91
55687;BME280;41911;52.362;4.978;2023-03-12T01:56:35;101038.93;;;3.01;38.53
55687;BME280;41911;52.362;4.978;2023-03-12T01:57:10;101036.96;;;3.31;38.14
55687;BME280;41911;52.362;4.978;2023-03-12T01:57:46;101036.21;;;3.19;37.94
55687;BME280;41911;52.362;4.978;2023-03-12T01:58:18;101034.61;;;3.02;38.05
55687;BME280;41911;52.362;4.978;2023-03-12T01:58:53;101034.82;;;2.87;38.29
55687;BME280;41911;52.362;4.978;2023-03-12T01:59:30;101035.64;;;3.30;38.23
55687;BME280;41911;52.362;4.978;2023-03-12T02:00:06;101036.79;;;3.33;38.11
55687;BME280;41911;52.362;4.978;2023-03-12T02:00:38;101036.69;;;3.22;38.19
55687;BME280;41911;52.362;4.978;2023-03-12T02:01:09;101036.41;;;3.13;38.69
55687;BME280;41911;52.362;4.978;2023-03-12T02:01:41;101036.22;;;3.13;38.23
55687;BME280;41911;52.362;4.978;2023-03-12T02:02:14;101037.77;;;2.85;38.27
55687;BME280;41911;52.362;4.978;2023-03-12T02:02:46;101032.85;;;2.81;38.18
55687;BME280;41911;52.362;4.978;2023-03-12T02:03:19;101034.68;;;3.05;38.50
55687;BME280;41911;52.362;4.978;2023-03-12T02:03:52;101035.53;;;3.51;38.11
55687;BME280;41911;52.362;4.978;2023-03-12T02:04:25;101033.29;;;3.46;38.54
55687;BME280;41911;52.362;4.978;2023-03-12T02:05:04;101033.57;;;3.53;38.27
55687;BME280;41911;52.362;4.978;2023-03-12T02:05:41;101028.28;;;3.39;38.43
55687;BME280;41911;52.362;4.978;2023-03-12T02:06:15;101029.19;;;3.55;38.53
55687;BME280;41911;52.362;4.978;2023-03-12T02:06:55;101028.48;;;3.34;38.36
55687;BME280;41911;52.362;4.978;2023-03-12T02:07:28;101023.79;;;3.37;38.40
55687;BME280;41911;52.362;4.978;2023-03-12T02:08:00;101025.27;;;3.40;38.39
55687;BME280;41911;52.362;4.978;2023-03-12T02:08:34;101023.54;;;3.33;38.02
55687;BME280;41911;52.362;4.978;2023-03-12T02:09:07;101019.53;;;2.95;38.23
55687;BME280;41911;52.362;4.978;2023-03-12T02:09:40;101020.33;;;3.56;38.25
55687;BME280;41911;52.362;4.978;2023-03-12T02:10:12;101017.64;;;3.20;38.41
55687;BME280;41911;52.362;4.978;2023-03-12T02:10:44;101015.10;;;3.32;38.28
55687;BME280;41911;52.362;4.978;2023-03-12T02:11:15;101014.64;;;3.33;38.04
55687;BME280;41911;52.362;4.978;2023-03-12T02:11:46;101016.48;;;3.28;38.09
55687;BME280;41911;52.362;4.978;2023-03-12T02:12:17;101015.92;;;3.39;38.20
55687;BME280;41911;52.362;4.978;2023-03-12T02:12:49;101015.47;;;3.43;38.30
55687;BME280;41911;52.362;4.978;2023-03-12T02:13:21;101013.92;;;3.64;38.40
55687;BME280;41911;52.362;4.978;2023-03-12T02:13:52;101014.23;;;3.10;38.15
55687;BME280;41911;52.362;4.978;2023-03-12T02:14:23;101016.10;;;3.09;38.29
55687;BME280;41911;52.362;4.978;2023-03-12T02:14:54;101016.88;;;3.12;38.38
55687;BME280;41911;52.362;4.978;2023-03-12T02:15:25;101015.83;;;3.79;38.12
55687;BME280;41911;52.362;4.978;2023-03-12T02:15:56;101018.64;;;3.29;38.25
55687;BME280;41911;52.362;4.978;2023-03-12T02:16:28;101018.15;;;2.96;38.10
55687;BME280;41911;52.362;4.978;2023-03-12T02:17:05;101016.55;;;2.97;38.47
55687;BME280;41911;52.362;4.978;2023-03-12T02:17:37;101019.38;;;3.25;38.55
55687;BME280;41911;52.362;4.978;2023-03-12T02:18:10;101023.09;;;3.38;38.30
55687;BME280;41911;52.362;4.978;2023-03-12T02:18:45;101021.94;;;3.20;38.81
55687;BME280;41911;52.362;4.978;2023-03-12T02:19:24;101022.87;;;2.72;39.11
55687;BME280;41911;52.362;4.978;2023-03-12T02:20:09;101018.41;;;3.04;39.45
55687;BME280;41911;52.362;4.978;2023-03-12T02:20:49;101015.41;;;3.12;39.47
55687;BME280;41911;52.362;4.978;2023-03-12T02:21:24;101010.66;;;3.10;38.98
55687;BME280;41911;52.362;4.978;2023-03-12T02:21:55;101009.66;;;3.14;39.06
55687;BME280;41911;52.362;4.978;2023-03-12T02:22:28;101007.20;;;3.47;39.01
55687;BME280;41911;52.362;4.978;2023-03-12T02:23:05;101008.46;;;3.13;39.19
55687;BME280;41911;52.362;4.978;2023-03-12T02:23:43;101003.64;;;3.47;38.78
55687;BME280;41911;52.362;4.978;2023-03-12T02:24:22;101000.82;;;3.31;38.66
55687;BME280;41911;52.362;4.978;2023-03-12T02:24:58;101001.41;;;3.45;38.68
55687;BME280;41911;52.362;4.978;2023-03-12T02:25:37;100999.78;;;3.38;38.71
55687;BME280;41911;52.362;4.978;2023-03-12T02:26:10;100999.91;;;3.13;38.78
55687;BME280;41911;52.362;4.978;2023-03-12T02:26:42;100998.90;;;3.20;38.79
55687;BME280;41911;52.362;4.978;2023-03-12T02:27:13;100996.73;;;3.21;38.75
55687;BME280;41911;52.362;4.978;2023-03-12T02:27:45;100995.29;;;3.28;38.68
55687;BME280;41911;52.362;4.978;2023-03-12T02:28:19;100993.73;;;2.94;38.81
55687;BME280;41911;52.362;4.978;2023-03-12T02:28:50;100989.30;;;3.69;38.82
55687;BME280;41911;52.362;4.978;2023-03-12T02:29:22;100987.55;;;3.37;38.65
55687;BME280;41911;52.362;4.978;2023-03-12T02:29:54;100984.16;;;3.51;38.73
55687;BME280;41911;52.362;4.978;2023-03-12T02:30:27;100982.64;;;3.43;38.57
55687;BME280;41911;52.362;4.978;2023-03-12T02:31:02;100981.11;;;3.22;38.57
55687;BME280;41911;52.362;4.978;2023-03-12T02:31:37;100977.89;;;3.52;38.67
55687;BME280;41911;52.362;4.978;2023-03-12T02:32:16;100975.97;;;3.29;38.65
55687;BME280;41911;52.362;4.978;2023-03-12T02:32:49;100975.93;;;3.57;38.57
55687;BME280;41911;52.362;4.978;2023-03-12T02:33:22;100975.54;;;3.22;38.50
55687;BME280;41911;52.362;4.978;2023-03-12T02:33:53;100972.67;;;3.51;38.42
55687;BME280;41911;52.362;4.978;2023-03-12T02:34:24;100971.68;;;3.27;38.43
55687;BME280;41911;52.362;4.978;2023-03-12T02:34:56;100969.11;;;3.48;38.49
55687;BME280;41911;52.362;4.978;2023-03-12T02:35:27;100969.02;;;3.43;38.86
55687;BME280;41911;52.362;4.978;2023-03-12T02:35:58;100968.04;;;3.17;38.56
55687;BME280;41911;52.362;4.978;2023-03-12T02:36:29;100966.44;;;3.25;38.64
55687;BME280;41911;52.362;4.978;2023-03-12T02:37:00;100964.98;;;3.18;38.62
55687;BME280;41911;52.362;4.978;2023-03-12T02:37:31;100964.19;;;3.46;38.71
55687;BME280;41911;52.362;4.978;2023-03-12T02:38:22;100963.46;;;3.20;38.80
55687;BME280;41911;52.362;4.978;2023-03-12T02:38:59;100964.59;;;3.84;38.64
55687;BME280;41911;52.362;4.978;2023-03-12T02:39:30;100964.26;;;3.14;38.84
55687;BME280;41911;52.362;4.978;2023-03-12T02:40:06;100964.38;;;3.23;38.62
55687;BME280;41911;52.362;4.978;2023-03-12T02:40:44;100961.15;;;3.15;38.77
55687;BME280;41911;52.362;4.978;2023-03-12T02:41:20;100962.60;;;3.13;38.60
55687;BME280;41911;52.362;4.978;2023-03-12T02:41:54;100960.50;;;3.08;38.93
55687;BME280;41911;52.362;4.978;2023-03-12T02:42:25;100958.06;;;3.19;38.78
55687;BME280;41911;52.362;4.978;2023-03-12T02:42:56;100957.82;;;3.17;38.81
55687;BME280;41911;52.362;4.978;2023-03-12T02:43:28;100957.95;;;3.19;38.93
55687;BME280;41911;52.362;4.978;2023-03-12T02:44:02;100956.64;;;3.18;38.65
55687;BME280;41911;52.362;4.978;2023-03-12T02:44:35;100955.65;;;3.19;38.65
55687;BME280;41911;52.362;4.978;2023-03-12T02:45:07;100954.71;;;3.20;38.93
55687;BME280;41911;52.362;4.978;2023-03-12T02:45:38;100953.14;;;3.14;38.93
55687;BME280;41911;52.362;4.978;2023-03-12T02:46:09;100953.87;;;3.15;38.84
55687;BME280;41911;52.362;4.978;2023-03-12T02:46:43;100952.02;;;3.16;39.20
55687;BME280;41911;52.362;4.978;2023-03-12T02:47:14;100951.17;;;3.69;39.31
55687;BME280;41911;52.362;4.978;2023-03-12T02:47:45;100951.03;;;3.40;39.27
55687;BME280;41911;52.362;4.978;2023-03-12T02:48:16;100947.25;;;3.36;39.22
55687;BME280;41911;52.362;4.978;2023-03-12T02:48:47;100947.79;;;3.59;39.22
55687;BME280;41911;52.362;4.978;2023-03-12T02:49:20;100947.42;;;3.10;39.27
55687;BME280;41911;52.362;4.978;2023-03-12T02:49:52;100948.39;;;3.30;39.30
55687;BME280;41911;52.362;4.978;2023-03-12T02:50:23;100947.46;;;3.48;39.19
55687;BME280;41911;52.362;4.978;2023-03-12T02:50:54;100950.30;;;3.17;39.51
55687;BME280;41911;52.362;4.978;2023-03-12T02:51:25;100946.99;;;3.51;39.24
55687;BME280;41911;52.362;4.978;2023-03-12T02:51:56;100945.11;;;3.10;39.04
55687;BME280;41911;52.362;4.978;2023-03-12T02:52:27;100939.99;;;3.09;38.91
55687;BME280;41911;52.362;4.978;2023-03-12T02:52:58;100939.39;;;3.22;38.90